sensor_id;sensor_type;location;lat;lon;timestamp;P1;durP1;ratioP1;P2;durP2;ratioP2
24961;SDS011;12992;50.884;13.668;2022-12-07T00:01:23;21.52;;;12.18;;
24961;SDS011;12992;50.884;13.668;2022-12-07T00:03:51;22.45;;;12.13;;
24961;SDS011;12992;50.884;13.668;2022-12-07T00:06:18;20.48;;;11.90;;
24961;SDS011;12992;50.884;13.668;2022-12-07T00:08:44;18.67;;;11.73;;
24961;SDS011;12992;50.884;13.668;2022-12-07T00:11:12;19.42;;;11.77;;
24961;SDS011;12992;50.884;13.668;2022-12-07T00:13:39;21.10;;;11.90;;
24961;SDS011;12992;50.884;13.668;2022-12-07T00:16:06;18.77;;;10.68;;
24961;SDS011;12992;50.884;13.668;2022-12-07T00:18:36;19.90;;;10.85;;
24961;SDS011;12992;50.884;13.668;2022-12-07T00:21:03;17.52;;;10.30;;
24961;SDS011;12992;50.884;13.668;2022-12-07T00:23:35;18.35;;;10.18;;
24961;SDS011;12992;50.884;13.668;2022-12-07T00:26:04;19.08;;;10.63;;
24961;SDS011;12992;50.884;13.668;2022-12-07T00:28:31;17.15;;;9.55;;
24961;SDS011;12992;50.884;13.668;2022-12-07T00:31:00;18.98;;;10.00;;
24961;SDS011;12992;50.884;13.668;2022-12-07T00:33:29;17.13;;;9.77;;
24961;SDS011;12992;50.884;13.668;2022-12-07T00:35:55;16.27;;;9.75;;
24961;SDS011;12992;50.884;13.668;2022-12-07T00:38:24;18.98;;;10.27;;
24961;SDS011;12992;50.884;13.668;2022-12-07T00:40:55;17.45;;;10.35;;
24961;SDS011;12992;50.884;13.668;2022-12-07T00:43:22;15.98;;;9.32;;
24961;SDS011;12992;50.884;13.668;2022-12-07T00:45:47;25.73;;;11.05;;
24961;SDS011;12992;50.884;13.668;2022-12-07T00:48:12;19.30;;;10.05;;
24961;SDS011;12992;50.884;13.668;2022-12-07T00:50:38;17.15;;;9.45;;
24961;SDS011;12992;50.884;13.668;2022-12-07T00:53:03;19.05;;;10.05;;
24961;SDS011;12992;50.884;13.668;2022-12-07T00:55:32;18.08;;;8.95;;
24961;SDS011;12992;50.884;13.668;2022-12-07T00:57:58;16.52;;;9.48;;
24961;SDS011;12992;50.884;13.668;2022-12-07T01:00:23;15.65;;;9.07;;
24961;SDS011;12992;50.884;13.668;2022-12-07T01:02:48;16.67;;;9.38;;
24961;SDS011;12992;50.884;13.668;2022-12-07T01:05:14;16.58;;;9.65;;
24961;SDS011;12992;50.884;13.668;2022-12-07T01:07:39;17.42;;;9.75;;
24961;SDS011;12992;50.884;13.668;2022-12-07T01:10:05;15.30;;;9.50;;
24961;SDS011;12992;50.884;13.668;2022-12-07T01:12:31;17.90;;;10.25;;
24961;SDS011;12992;50.884;13.668;2022-12-07T01:14:56;22.90;;;10.20;;
24961;SDS011;12992;50.884;13.668;2022-12-07T01:17:21;18.23;;;9.75;;
24961;SDS011;12992;50.884;13.668;2022-12-07T01:19:47;16.23;;;9.48;;
24961;SDS011;12992;50.884;13.668;2022-12-07T01:22:12;18.08;;;9.85;;
24961;SDS011;12992;50.884;13.668;2022-12-07T01:24:37;19.95;;;9.75;;
24961;SDS011;12992;50.884;13.668;2022-12-07T01:27:03;17.20;;;9.98;;
24961;SDS011;12992;50.884;13.668;2022-12-07T01:29:28;18.00;;;10.40;;
24961;SDS011;12992;50.884;13.668;2022-12-07T01:31:53;16.25;;;9.70;;
24961;SDS011;12992;50.884;13.668;2022-12-07T01:34:19;16.40;;;9.68;;
24961;SDS011;12992;50.884;13.668;2022-12-07T01:36:44;19.55;;;10.15;;
24961;SDS011;12992;50.884;13.668;2022-12-07T01:39:09;16.95;;;9.93;;
24961;SDS011;12992;50.884;13.668;2022-12-07T01:41:36;18.08;;;10.02;;
24961;SDS011;12992;50.884;13.668;2022-12-07T01:46:45;15.70;;;9.48;;
24961;SDS011;12992;50.884;13.668;2022-12-07T01:49:40;17.83;;;9.48;;
24961;SDS011;12992;50.884;13.668;2022-12-07T01:52:25;15.45;;;9.65;;
24961;SDS011;12992;50.884;13.668;2022-12-07T01:55:03;16.88;;;9.57;;
24961;SDS011;12992;50.884;13.668;2022-12-07T01:57:31;17.58;;;9.32;;
24961;SDS011;12992;50.884;13.668;2022-12-07T01:59:59;17.90;;;10.63;;
24961;SDS011;12992;50.884;13.668;2022-12-07T02:02:38;16.52;;;9.68;;
24961;SDS011;12992;50.884;13.668;2022-12-07T02:05:08;17.58;;;9.70;;
24961;SDS011;12992;50.884;13.668;2022-12-07T02:07:35;17.38;;;9.32;;
24961;SDS011;12992;50.884;13.668;2022-12-07T02:10:15;14.95;;;9.27;;
24961;SDS011;12992;50.884;13.668;2022-12-07T02:12:43;13.98;;;8.57;;
24961;SDS011;12992;50.884;13.668;2022-12-07T02:15:11;16.65;;;8.73;;
24961;SDS011;12992;50.884;13.668;2022-12-07T02:17:42;16.80;;;9.60;;
24961;SDS011;12992;50.884;13.668;2022-12-07T02:20:28;18.13;;;9.75;;
24961;SDS011;12992;50.884;13.668;2022-12-07T02:30:54;22.10;;;11.27;;
24961;SDS011;12992;50.884;13.668;2022-12-07T02:33:24;24.08;;;12.40;;
24961;SDS011;12992;50.884;13.668;2022-12-07T02:36:02;21.27;;;11.73;;
24961;SDS011;12992;50.884;13.668;2022-12-07T02:38:40;23.85;;;12.52;;
24961;SDS011;12992;50.884;13.668;2022-12-07T02:41:22;23.77;;;12.35;;
24961;SDS011;12992;50.884;13.668;2022-12-07T02:43:56;20.77;;;11.95;;
24961;SDS011;12992;50.884;13.668;2022-12-07T02:46:25;23.98;;;12.95;;
24961;SDS011;12992;50.884;13.668;2022-12-07T02:48:55;23.65;;;11.05;;
24961;SDS011;12992;50.884;13.668;2022-12-07T02:51:21;21.65;;;12.13;;
24961;SDS011;12992;50.884;13.668;2022-12-07T02:53:47;21.10;;;11.75;;
24961;SDS011;12992;50.884;13.668;2022-12-07T03:07:13;20.45;;;11.02;;
24961;SDS011;12992;50.884;13.668;2022-12-07T03:18:38;17.88;;;10.15;;
24961;SDS011;12992;50.884;13.668;2022-12-07T03:21:14;20.45;;;10.68;;
24961;SDS011;12992;50.884;13.668;2022-12-07T03:23:43;15.95;;;10.32;;
24961;SDS011;12992;50.884;13.668;2022-12-07T03:26:13;16.02;;;9.73;;
24961;SDS011;12992;50.884;13.668;2022-12-07T03:28:42;15.20;;;9.02;;
24961;SDS011;12992;50.884;13.668;2022-12-07T03:31:16;15.35;;;8.93;;
24961;SDS011;12992;50.884;13.668;2022-12-07T03:36:57;15.57;;;9.13;;
24961;SDS011;12992;50.884;13.668;2022-12-07T03:41:47;15.77;;;9.15;;
24961;SDS011;12992;50.884;13.668;2022-12-07T03:44:13;15.98;;;10.00;;
24961;SDS011;12992;50.884;13.668;2022-12-07T03:46:44;16.48;;;10.18;;
24961;SDS011;12992;50.884;13.668;2022-12-07T03:52:10;15.77;;;9.38;;
24961;SDS011;12992;50.884;13.668;2022-12-07T03:54:56;15.60;;;10.02;;
24961;SDS011;12992;50.884;13.668;2022-12-07T03:57:25;15.80;;;10.13;;
24961;SDS011;12992;50.884;13.668;2022-12-07T03:59:53;17.35;;;10.23;;
24961;SDS011;12992;50.884;13.668;2022-12-07T04:02:21;16.08;;;9.52;;
24961;SDS011;12992;50.884;13.668;2022-12-07T04:04:47;16.33;;;8.98;;
24961;SDS011;12992;50.884;13.668;2022-12-07T04:07:12;16.90;;;9.45;;
24961;SDS011;12992;50.884;13.668;2022-12-07T04:09:38;15.00;;;9.32;;
24961;SDS011;12992;50.884;13.668;2022-12-07T04:12:03;14.93;;;8.57;;
24961;SDS011;12992;50.884;13.668;2022-12-07T04:14:29;15.63;;;8.95;;
24961;SDS011;12992;50.884;13.668;2022-12-07T04:16:55;15.52;;;9.02;;
24961;SDS011;12992;50.884;13.668;2022-12-07T04:19:23;14.80;;;8.25;;
24961;SDS011;12992;50.884;13.668;2022-12-07T04:21:50;14.13;;;8.32;;
24961;SDS011;12992;50.884;13.668;2022-12-07T04:24:15;15.60;;;8.30;;
24961;SDS011;12992;50.884;13.668;2022-12-07T04:26:41;13.50;;;7.82;;
24961;SDS011;12992;50.884;13.668;2022-12-07T04:29:07;14.18;;;8.45;;
24961;SDS011;12992;50.884;13.668;2022-12-07T04:31:33;16.02;;;8.57;;
24961;SDS011;12992;50.884;13.668;2022-12-07T04:33:59;12.77;;;7.63;;
24961;SDS011;12992;50.884;13.668;2022-12-07T04:36:24;15.25;;;7.63;;
24961;SDS011;12992;50.884;13.668;2022-12-07T04:38:52;12.20;;;7.35;;
24961;SDS011;12992;50.884;13.668;2022-12-07T04:41:18;13.00;;;7.15;;
24961;SDS011;12992;50.884;13.668;2022-12-07T04:43:43;13.65;;;7.68;;
24961;SDS011;12992;50.884;13.668;2022-12-07T04:46:09;13.15;;;7.10;;
24961;SDS011;12992;50.884;13.668;2022-12-07T04:48:34;12.73;;;7.20;;
24961;SDS011;12992;50.884;13.668;2022-12-07T04:50:59;12.18;;;6.85;;
24961;SDS011;12992;50.884;13.668;2022-12-07T04:53:25;13.18;;;6.85;;
24961;SDS011;12992;50.884;13.668;2022-12-07T04:55:50;10.65;;;6.13;;
24961;SDS011;12992;50.884;13.668;2022-12-07T04:58:15;10.80;;;6.28;;
24961;SDS011;12992;50.884;13.668;2022-12-07T05:00:41;9.15;;;5.65;;
24961;SDS011;12992;50.884;13.668;2022-12-07T05:03:06;10.25;;;5.75;;
24961;SDS011;12992;50.884;13.668;2022-12-07T05:05:32;10.07;;;6.15;;
24961;SDS011;12992;50.884;13.668;2022-12-07T05:07:58;9.38;;;5.80;;
24961;SDS011;12992;50.884;13.668;2022-12-07T05:10:23;10.90;;;6.13;;
24961;SDS011;12992;50.884;13.668;2022-12-07T05:12:49;10.75;;;5.57;;
24961;SDS011;12992;50.884;13.668;2022-12-07T05:15:15;10.45;;;5.93;;
24961;SDS011;12992;50.884;13.668;2022-12-07T05:17:41;10.13;;;6.05;;
24961;SDS011;12992;50.884;13.668;2022-12-07T05:20:06;9.27;;;5.68;;
24961;SDS011;12992;50.884;13.668;2022-12-07T05:22:33;8.52;;;5.55;;
24961;SDS011;12992;50.884;13.668;2022-12-07T05:24:58;10.10;;;5.72;;
24961;SDS011;12992;50.884;13.668;2022-12-07T05:27:23;9.23;;;5.40;;
24961;SDS011;12992;50.884;13.668;2022-12-07T05:29:49;9.23;;;5.68;;
24961;SDS011;12992;50.884;13.668;2022-12-07T05:32:15;8.35;;;5.18;;
24961;SDS011;12992;50.884;13.668;2022-12-07T05:34:41;9.38;;;4.90;;
24961;SDS011;12992;50.884;13.668;2022-12-07T05:37:06;9.63;;;5.50;;
24961;SDS011;12992;50.884;13.668;2022-12-07T05:39:31;8.60;;;4.75;;
24961;SDS011;12992;50.884;13.668;2022-12-07T05:41:57;7.40;;;4.25;;
24961;SDS011;12992;50.884;13.668;2022-12-07T05:44:44;7.72;;;4.53;;
24961;SDS011;12992;50.884;13.668;2022-12-07T05:47:11;9.05;;;4.72;;
24961;SDS011;12992;50.884;13.668;2022-12-07T05:49:38;7.90;;;4.53;;
24961;SDS011;12992;50.884;13.668;2022-12-07T05:52:03;8.13;;;4.63;;
24961;SDS011;12992;50.884;13.668;2022-12-07T05:54:29;6.28;;;4.13;;
24961;SDS011;12992;50.884;13.668;2022-12-07T05:56:54;5.95;;;4.05;;
24961;SDS011;12992;50.884;13.668;2022-12-07T05:59:20;6.40;;;4.07;;
24961;SDS011;12992;50.884;13.668;2022-12-07T06:04:26;6.30;;;3.90;;
24961;SDS011;12992;50.884;13.668;2022-12-07T06:06:53;6.50;;;4.18;;
24961;SDS011;12992;50.884;13.668;2022-12-07T06:09:19;8.48;;;4.50;;
24961;SDS011;12992;50.884;13.668;2022-12-07T06:11:45;5.63;;;3.70;;
24961;SDS011;12992;50.884;13.668;2022-12-07T06:14:29;5.70;;;4.30;;
24961;SDS011;12992;50.884;13.668;2022-12-07T06:16:55;8.10;;;4.00;;
24961;SDS011;12992;50.884;13.668;2022-12-07T06:19:20;6.82;;;4.07;;
24961;SDS011;12992;50.884;13.668;2022-12-07T06:21:46;4.57;;;3.70;;
24961;SDS011;12992;50.884;13.668;2022-12-07T06:24:12;6.03;;;4.30;;
24961;SDS011;12992;50.884;13.668;2022-12-07T06:26:38;6.82;;;3.97;;
24961;SDS011;12992;50.884;13.668;2022-12-07T06:29:04;6.13;;;4.20;;
24961;SDS011;12992;50.884;13.668;2022-12-07T06:31:30;7.68;;;4.05;;
24961;SDS011;12992;50.884;13.668;2022-12-07T06:34:03;7.38;;;4.43;;
24961;SDS011;12992;50.884;13.668;2022-12-07T06:36:31;5.75;;;4.28;;
24961;SDS011;12992;50.884;13.668;2022-12-07T06:38:56;9.02;;;4.80;;
24961;SDS011;12992;50.884;13.668;2022-12-07T06:41:22;7.32;;;4.93;;
24961;SDS011;12992;50.884;13.668;2022-12-07T06:43:48;8.02;;;5.10;;
24961;SDS011;12992;50.884;13.668;2022-12-07T06:46:14;7.90;;;4.70;;
24961;SDS011;12992;50.884;13.668;2022-12-07T06:48:40;7.18;;;4.80;;
24961;SDS011;12992;50.884;13.668;2022-12-07T06:51:06;7.43;;;5.05;;
24961;SDS011;12992;50.884;13.668;2022-12-07T06:53:32;6.80;;;4.70;;
24961;SDS011;12992;50.884;13.668;2022-12-07T06:55:57;7.50;;;4.80;;
24961;SDS011;12992;50.884;13.668;2022-12-07T06:58:22;7.38;;;5.05;;
24961;SDS011;12992;50.884;13.668;2022-12-07T07:00:48;8.80;;;5.38;;
24961;SDS011;12992;50.884;13.668;2022-12-07T07:03:14;7.68;;;5.05;;
24961;SDS011;12992;50.884;13.668;2022-12-07T07:05:40;7.82;;;5.05;;
24961;SDS011;12992;50.884;13.668;2022-12-07T07:08:07;8.00;;;5.15;;
24961;SDS011;12992;50.884;13.668;2022-12-07T07:10:32;7.00;;;4.78;;
24961;SDS011;12992;50.884;13.668;2022-12-07T07:12:58;8.10;;;5.22;;
24961;SDS011;12992;50.884;13.668;2022-12-07T07:15:23;8.38;;;5.63;;
24961;SDS011;12992;50.884;13.668;2022-12-07T07:17:49;8.15;;;5.10;;
24961;SDS011;12992;50.884;13.668;2022-12-07T07:20:14;7.65;;;4.70;;
24961;SDS011;12992;50.884;13.668;2022-12-07T07:22:39;6.57;;;4.63;;
24961;SDS011;12992;50.884;13.668;2022-12-07T07:25:05;6.97;;;4.70;;
24961;SDS011;12992;50.884;13.668;2022-12-07T07:27:30;6.00;;;4.68;;
24961;SDS011;12992;50.884;13.668;2022-12-07T07:29:56;8.48;;;4.75;;
24961;SDS011;12992;50.884;13.668;2022-12-07T07:32:21;6.63;;;4.40;;
24961;SDS011;12992;50.884;13.668;2022-12-07T07:34:47;6.60;;;4.15;;
24961;SDS011;12992;50.884;13.668;2022-12-07T07:37:12;6.15;;;4.38;;
24961;SDS011;12992;50.884;13.668;2022-12-07T07:39:38;6.32;;;3.95;;
24961;SDS011;12992;50.884;13.668;2022-12-07T07:42:04;7.80;;;4.30;;
24961;SDS011;12992;50.884;13.668;2022-12-07T07:44:31;5.50;;;3.90;;
24961;SDS011;12992;50.884;13.668;2022-12-07T07:46:57;5.45;;;3.70;;
24961;SDS011;12992;50.884;13.668;2022-12-07T07:49:22;6.82;;;4.10;;
24961;SDS011;12992;50.884;13.668;2022-12-07T07:51:47;6.38;;;4.38;;
24961;SDS011;12992;50.884;13.668;2022-12-07T07:54:13;7.13;;;4.53;;
24961;SDS011;12992;50.884;13.668;2022-12-07T07:56:38;7.22;;;4.97;;
24961;SDS011;12992;50.884;13.668;2022-12-07T07:59:03;8.60;;;5.22;;
24961;SDS011;12992;50.884;13.668;2022-12-07T08:01:29;9.18;;;6.22;;
24961;SDS011;12992;50.884;13.668;2022-12-07T08:03:54;12.27;;;7.35;;
24961;SDS011;12992;50.884;13.668;2022-12-07T08:06:19;11.55;;;6.80;;
24961;SDS011;12992;50.884;13.668;2022-12-07T08:08:45;11.32;;;7.60;;
24961;SDS011;12992;50.884;13.668;2022-12-07T08:11:10;12.93;;;8.55;;
24961;SDS011;12992;50.884;13.668;2022-12-07T08:13:36;14.48;;;9.40;;
24961;SDS011;12992;50.884;13.668;2022-12-07T08:16:05;15.10;;;8.95;;
24961;SDS011;12992;50.884;13.668;2022-12-07T08:18:36;15.40;;;9.15;;
24961;SDS011;12992;50.884;13.668;2022-12-07T08:21:06;12.80;;;8.68;;
24961;SDS011;12992;50.884;13.668;2022-12-07T08:23:32;13.15;;;8.75;;
24961;SDS011;12992;50.884;13.668;2022-12-07T08:26:06;15.40;;;9.82;;
24961;SDS011;12992;50.884;13.668;2022-12-07T08:28:33;14.13;;;9.55;;
24961;SDS011;12992;50.884;13.668;2022-12-07T08:30:59;14.88;;;8.55;;
24961;SDS011;12992;50.884;13.668;2022-12-07T08:33:25;14.65;;;9.55;;
24961;SDS011;12992;50.884;13.668;2022-12-07T08:35:51;14.82;;;9.15;;
24961;SDS011;12992;50.884;13.668;2022-12-07T08:38:16;15.70;;;9.35;;
24961;SDS011;12992;50.884;13.668;2022-12-07T08:40:42;14.05;;;9.02;;
24961;SDS011;12992;50.884;13.668;2022-12-07T08:43:07;12.98;;;8.57;;
24961;SDS011;12992;50.884;13.668;2022-12-07T08:45:32;12.23;;;7.97;;
24961;SDS011;12992;50.884;13.668;2022-12-07T08:48:07;12.90;;;7.90;;
24961;SDS011;12992;50.884;13.668;2022-12-07T08:50:35;12.10;;;7.43;;
24961;SDS011;12992;50.884;13.668;2022-12-07T08:53:02;12.60;;;8.18;;
24961;SDS011;12992;50.884;13.668;2022-12-07T08:55:29;12.20;;;7.25;;
24961;SDS011;12992;50.884;13.668;2022-12-07T08:57:55;11.63;;;7.07;;
24961;SDS011;12992;50.884;13.668;2022-12-07T09:00:23;11.40;;;7.70;;
24961;SDS011;12992;50.884;13.668;2022-12-07T09:02:48;13.48;;;8.10;;
24961;SDS011;12992;50.884;13.668;2022-12-07T09:05:13;13.10;;;7.93;;
24961;SDS011;12992;50.884;13.668;2022-12-07T09:07:46;10.40;;;7.22;;
24961;SDS011;12992;50.884;13.668;2022-12-07T09:10:16;12.30;;;7.43;;
24961;SDS011;12992;50.884;13.668;2022-12-07T09:12:43;10.48;;;6.80;;
24961;SDS011;12992;50.884;13.668;2022-12-07T09:15:08;13.05;;;7.13;;
24961;SDS011;12992;50.884;13.668;2022-12-07T09:17:34;11.05;;;7.05;;
24961;SDS011;12992;50.884;13.668;2022-12-07T09:20:01;11.40;;;7.50;;
24961;SDS011;12992;50.884;13.668;2022-12-07T09:22:30;11.23;;;7.45;;
24961;SDS011;12992;50.884;13.668;2022-12-07T09:24:58;12.85;;;6.70;;
24961;SDS011;12992;50.884;13.668;2022-12-07T09:27:25;9.73;;;6.38;;
24961;SDS011;12992;50.884;13.668;2022-12-07T09:29:51;11.07;;;6.32;;
24961;SDS011;12992;50.884;13.668;2022-12-07T09:32:16;9.07;;;5.68;;
24961;SDS011;12992;50.884;13.668;2022-12-07T09:34:42;13.02;;;6.57;;
24961;SDS011;12992;50.884;13.668;2022-12-07T09:37:07;9.45;;;6.20;;
24961;SDS011;12992;50.884;13.668;2022-12-07T09:39:33;10.50;;;6.10;;
24961;SDS011;12992;50.884;13.668;2022-12-07T09:41:59;8.93;;;5.55;;
24961;SDS011;12992;50.884;13.668;2022-12-07T09:44:28;9.23;;;5.75;;
24961;SDS011;12992;50.884;13.668;2022-12-07T09:46:54;12.10;;;6.07;;
24961;SDS011;12992;50.884;13.668;2022-12-07T09:49:22;10.55;;;6.05;;
24961;SDS011;12992;50.884;13.668;2022-12-07T09:51:59;10.43;;;6.35;;
24961;SDS011;12992;50.884;13.668;2022-12-07T09:54:27;12.07;;;5.18;;
24961;SDS011;12992;50.884;13.668;2022-12-07T09:56:54;10.27;;;5.68;;
24961;SDS011;12992;50.884;13.668;2022-12-07T09:59:20;14.77;;;6.30;;
24961;SDS011;12992;50.884;13.668;2022-12-07T10:01:47;11.30;;;6.35;;
24961;SDS011;12992;50.884;13.668;2022-12-07T10:04:17;10.38;;;5.70;;
24961;SDS011;12992;50.884;13.668;2022-12-07T10:06:47;11.13;;;5.65;;
24961;SDS011;12992;50.884;13.668;2022-12-07T10:09:14;9.93;;;5.63;;
24961;SDS011;12992;50.884;13.668;2022-12-07T10:17:01;9.00;;;4.65;;
24961;SDS011;12992;50.884;13.668;2022-12-07T10:22:00;8.18;;;4.50;;
24961;SDS011;12992;50.884;13.668;2022-12-07T10:24:37;7.93;;;5.15;;
24961;SDS011;12992;50.884;13.668;2022-12-07T10:27:25;9.77;;;5.28;;
24961;SDS011;12992;50.884;13.668;2022-12-07T10:29:55;7.97;;;5.03;;
24961;SDS011;12992;50.884;13.668;2022-12-07T10:37:46;11.02;;;5.47;;
24961;SDS011;12992;50.884;13.668;2022-12-07T10:40:34;10.38;;;5.28;;
24961;SDS011;12992;50.884;13.668;2022-12-07T11:01:45;7.72;;;4.43;;
24961;SDS011;12992;50.884;13.668;2022-12-07T11:04:18;7.25;;;4.75;;
24961;SDS011;12992;50.884;13.668;2022-12-07T11:12:13;8.52;;;4.88;;
24961;SDS011;12992;50.884;13.668;2022-12-07T11:17:17;10.27;;;5.23;;
24961;SDS011;12992;50.884;13.668;2022-12-07T11:20:01;13.35;;;5.10;;
24961;SDS011;12992;50.884;13.668;2022-12-07T11:22:43;7.32;;;4.45;;
24961;SDS011;12992;50.884;13.668;2022-12-07T11:28:26;8.68;;;4.80;;
24961;SDS011;12992;50.884;13.668;2022-12-07T11:33:53;12.43;;;5.60;;
24961;SDS011;12992;50.884;13.668;2022-12-07T11:36:31;8.90;;;4.70;;
24961;SDS011;12992;50.884;13.668;2022-12-07T11:39:04;8.98;;;4.78;;
24961;SDS011;12992;50.884;13.668;2022-12-07T11:41:40;9.27;;;4.93;;
24961;SDS011;12992;50.884;13.668;2022-12-07T11:46:44;7.70;;;5.20;;
24961;SDS011;12992;50.884;13.668;2022-12-07T11:49:56;10.70;;;4.85;;
24961;SDS011;12992;50.884;13.668;2022-12-07T11:52:48;9.45;;;5.55;;
24961;SDS011;12992;50.884;13.668;2022-12-07T11:55:22;12.40;;;6.35;;
24961;SDS011;12992;50.884;13.668;2022-12-07T11:58:04;9.23;;;5.20;;
24961;SDS011;12992;50.884;13.668;2022-12-07T12:00:38;9.20;;;5.20;;
24961;SDS011;12992;50.884;13.668;2022-12-07T12:03:09;11.77;;;5.55;;
24961;SDS011;12992;50.884;13.668;2022-12-07T12:05:40;8.93;;;5.35;;
24961;SDS011;12992;50.884;13.668;2022-12-07T12:08:13;8.43;;;5.28;;
24961;SDS011;12992;50.884;13.668;2022-12-07T12:10:47;9.52;;;4.88;;
24961;SDS011;12992;50.884;13.668;2022-12-07T12:13:36;10.43;;;4.65;;
24961;SDS011;12992;50.884;13.668;2022-12-07T12:22:01;8.50;;;4.20;;
24961;SDS011;12992;50.884;13.668;2022-12-07T12:24:35;11.02;;;4.38;;
24961;SDS011;12992;50.884;13.668;2022-12-07T12:27:05;7.15;;;3.78;;
24961;SDS011;12992;50.884;13.668;2022-12-07T12:29:39;5.15;;;3.95;;
24961;SDS011;12992;50.884;13.668;2022-12-07T12:32:22;8.48;;;4.80;;
24961;SDS011;12992;50.884;13.668;2022-12-07T12:35:21;6.43;;;3.85;;
24961;SDS011;12992;50.884;13.668;2022-12-07T12:37:53;8.75;;;4.35;;
24961;SDS011;12992;50.884;13.668;2022-12-07T12:42:56;9.93;;;3.92;;
24961;SDS011;12992;50.884;13.668;2022-12-07T12:45:26;8.13;;;4.45;;
24961;SDS011;12992;50.884;13.668;2022-12-07T12:50:35;6.43;;;4.40;;
24961;SDS011;12992;50.884;13.668;2022-12-07T13:00:42;7.80;;;5.07;;
24961;SDS011;12992;50.884;13.668;2022-12-07T13:03:20;9.50;;;4.57;;
24961;SDS011;12992;50.884;13.668;2022-12-07T13:06:16;10.18;;;5.03;;
24961;SDS011;12992;50.884;13.668;2022-12-07T13:09:00;7.93;;;4.22;;
24961;SDS011;12992;50.884;13.668;2022-12-07T13:11:37;7.35;;;4.70;;
24961;SDS011;12992;50.884;13.668;2022-12-07T13:16:53;9.27;;;4.20;;
24961;SDS011;12992;50.884;13.668;2022-12-07T13:19:52;9.15;;;4.43;;
24961;SDS011;12992;50.884;13.668;2022-12-07T13:24:57;8.63;;;4.93;;
24961;SDS011;12992;50.884;13.668;2022-12-07T13:27:25;8.45;;;4.70;;
24961;SDS011;12992;50.884;13.668;2022-12-07T13:29:52;10.25;;;4.25;;
24961;SDS011;12992;50.884;13.668;2022-12-07T13:32:28;9.05;;;4.25;;
24961;SDS011;12992;50.884;13.668;2022-12-07T13:34:55;7.07;;;4.05;;
24961;SDS011;12992;50.884;13.668;2022-12-07T13:37:24;6.53;;;4.40;;
24961;SDS011;12992;50.884;13.668;2022-12-07T13:42:26;6.70;;;4.25;;
24961;SDS011;12992;50.884;13.668;2022-12-07T13:44:53;11.00;;;4.55;;
24961;SDS011;12992;50.884;13.668;2022-12-07T13:47:35;5.80;;;3.90;;
24961;SDS011;12992;50.884;13.668;2022-12-07T13:50:24;8.90;;;3.65;;
24961;SDS011;12992;50.884;13.668;2022-12-07T13:52:55;6.82;;;3.88;;
24961;SDS011;12992;50.884;13.668;2022-12-07T13:55:21;8.93;;;3.60;;
24961;SDS011;12992;50.884;13.668;2022-12-07T13:57:47;9.10;;;3.75;;
24961;SDS011;12992;50.884;13.668;2022-12-07T14:00:17;7.57;;;4.32;;
24961;SDS011;12992;50.884;13.668;2022-12-07T14:03:44;13.57;;;4.13;;
24961;SDS011;12992;50.884;13.668;2022-12-07T14:05:39;8.02;;;4.32;;
24961;SDS011;12992;50.884;13.668;2022-12-07T14:13:58;8.05;;;4.03;;
24961;SDS011;12992;50.884;13.668;2022-12-07T14:16:25;5.57;;;3.45;;
24961;SDS011;12992;50.884;13.668;2022-12-07T14:18:56;5.05;;;3.35;;
24961;SDS011;12992;50.884;13.668;2022-12-07T14:21:25;5.82;;;3.60;;
24961;SDS011;12992;50.884;13.668;2022-12-07T14:24:04;9.38;;;3.80;;
24961;SDS011;12992;50.884;13.668;2022-12-07T14:26:35;5.30;;;3.47;;
24961;SDS011;12992;50.884;13.668;2022-12-07T14:31:56;8.55;;;3.63;;
24961;SDS011;12992;50.884;13.668;2022-12-07T14:34:25;6.60;;;3.45;;
24961;SDS011;12992;50.884;13.668;2022-12-07T14:36:51;8.77;;;4.45;;
24961;SDS011;12992;50.884;13.668;2022-12-07T14:39:16;10.65;;;3.83;;
24961;SDS011;12992;50.884;13.668;2022-12-07T14:41:41;10.77;;;4.32;;
24961;SDS011;12992;50.884;13.668;2022-12-07T14:44:16;8.45;;;4.82;;
24961;SDS011;12992;50.884;13.668;2022-12-07T14:46:44;8.70;;;4.45;;
24961;SDS011;12992;50.884;13.668;2022-12-07T14:49:10;8.13;;;4.78;;
24961;SDS011;12992;50.884;13.668;2022-12-07T14:51:36;7.93;;;4.40;;
24961;SDS011;12992;50.884;13.668;2022-12-07T14:54:05;9.40;;;3.88;;
24961;SDS011;12992;50.884;13.668;2022-12-07T14:56:32;8.25;;;3.95;;
24961;SDS011;12992;50.884;13.668;2022-12-07T14:58:57;8.98;;;4.00;;
24961;SDS011;12992;50.884;13.668;2022-12-07T15:01:23;8.85;;;3.70;;
24961;SDS011;12992;50.884;13.668;2022-12-07T15:03:48;8.25;;;4.03;;
24961;SDS011;12992;50.884;13.668;2022-12-07T15:06:15;7.57;;;3.15;;
24961;SDS011;12992;50.884;13.668;2022-12-07T15:08:42;5.35;;;3.65;;
24961;SDS011;12992;50.884;13.668;2022-12-07T15:11:13;6.70;;;3.60;;
24961;SDS011;12992;50.884;13.668;2022-12-07T15:13:39;11.05;;;3.17;;
24961;SDS011;12992;50.884;13.668;2022-12-07T15:16:23;6.65;;;3.20;;
24961;SDS011;12992;50.884;13.668;2022-12-07T15:18:48;6.93;;;3.30;;
24961;SDS011;12992;50.884;13.668;2022-12-07T15:21:14;6.13;;;2.88;;
24961;SDS011;12992;50.884;13.668;2022-12-07T15:23:40;4.75;;;3.08;;
24961;SDS011;12992;50.884;13.668;2022-12-07T15:26:06;7.18;;;3.40;;
24961;SDS011;12992;50.884;13.668;2022-12-07T15:28:32;7.65;;;3.22;;
24961;SDS011;12992;50.884;13.668;2022-12-07T15:30:58;5.85;;;3.58;;
24961;SDS011;12992;50.884;13.668;2022-12-07T15:33:23;6.95;;;3.60;;
24961;SDS011;12992;50.884;13.668;2022-12-07T15:35:49;9.20;;;3.83;;
24961;SDS011;12992;50.884;13.668;2022-12-07T15:38:14;7.47;;;3.97;;
24961;SDS011;12992;50.884;13.668;2022-12-07T15:40:40;7.63;;;4.38;;
24961;SDS011;12992;50.884;13.668;2022-12-07T15:43:05;7.10;;;3.63;;
24961;SDS011;12992;50.884;13.668;2022-12-07T15:45:53;5.65;;;3.33;;
24961;SDS011;12992;50.884;13.668;2022-12-07T15:48:18;5.00;;;3.78;;
24961;SDS011;12992;50.884;13.668;2022-12-07T15:50:44;8.43;;;3.30;;
24961;SDS011;12992;50.884;13.668;2022-12-07T15:53:09;5.75;;;3.35;;
24961;SDS011;12992;50.884;13.668;2022-12-07T15:55:34;7.38;;;3.83;;
24961;SDS011;12992;50.884;13.668;2022-12-07T15:58:00;5.72;;;3.53;;
24961;SDS011;12992;50.884;13.668;2022-12-07T16:00:26;6.13;;;3.58;;
24961;SDS011;12992;50.884;13.668;2022-12-07T16:02:51;5.63;;;3.83;;
24961;SDS011;12992;50.884;13.668;2022-12-07T16:05:16;8.25;;;3.65;;
24961;SDS011;12992;50.884;13.668;2022-12-07T16:07:42;5.97;;;3.35;;
24961;SDS011;12992;50.884;13.668;2022-12-07T16:10:07;7.38;;;3.55;;
24961;SDS011;12992;50.884;13.668;2022-12-07T16:12:33;5.22;;;3.35;;
24961;SDS011;12992;50.884;13.668;2022-12-07T16:14:58;7.07;;;3.72;;
24961;SDS011;12992;50.884;13.668;2022-12-07T16:17:23;5.97;;;3.38;;
24961;SDS011;12992;50.884;13.668;2022-12-07T16:19:49;6.18;;;3.20;;
24961;SDS011;12992;50.884;13.668;2022-12-07T16:22:14;6.07;;;3.47;;
24961;SDS011;12992;50.884;13.668;2022-12-07T16:24:39;7.97;;;3.42;;
24961;SDS011;12992;50.884;13.668;2022-12-07T16:27:05;7.18;;;3.13;;
24961;SDS011;12992;50.884;13.668;2022-12-07T16:29:30;5.93;;;3.38;;
24961;SDS011;12992;50.884;13.668;2022-12-07T16:31:56;5.53;;;3.33;;
24961;SDS011;12992;50.884;13.668;2022-12-07T16:34:21;5.35;;;3.45;;
24961;SDS011;12992;50.884;13.668;2022-12-07T16:36:46;6.38;;;3.33;;
24961;SDS011;12992;50.884;13.668;2022-12-07T16:39:12;5.88;;;2.92;;
24961;SDS011;12992;50.884;13.668;2022-12-07T16:41:37;5.47;;;2.90;;